Latest Weather Observations for Walgett

IDN60801

Issued at 11:32 pm EST Monday 6 July 2015 (issued every 30 minutes, with the page automatically refreshed every 10 minutes)

About weather observations | Map of weather stations | Latest weather observations for NSW | Other Formats
Station Details ID: 052088 Name: WALGETT AIRPORT AWS Lat: -30.04 Lon: 148.12 Height: 133.0 m
Data from the previous 72 hours. | See also: Recent months at Walgett
Date/Time
EST
Temp
°C
App
Temp
°C
Dew
Point
Rel
Hum
%
Delta-T
°C
Wind Press
QNH
hPa
Press
MSL
hPa
Rain
since 9 am
mm
Dir
 
Spd
km/h
Gust
km/h
Spd
kts
Gust
kts
06/11:30pm 4.2 2.4 1.4 82 1.1 CALM 0 0 0 0 1020.2 1020.3 0.0
06/11:00pm 4.3 1.4 1.3 81 1.2 SSE 6 7 3 4 1020.3 1020.4 0.0
06/10:30pm 4.4 2.6 0.9 78 1.4 CALM 0 0 0 0 1020.3 1020.4 0.0
06/10:00pm 5.3 3.5 0.9 73 1.7 CALM 0 0 0 0 1020.4 1020.5 0.0
06/09:30pm 6.5 3.6 1.6 71 2.0 SSE 6 7 3 4 1020.3 1020.4 0.0
06/09:00pm 6.6 3.1 1.3 69 2.1 SSE 9 11 5 6 1020.2 1020.3 0.0
06/08:30pm 7.2 3.4 1.5 67 2.3 S 11 13 6 7 1020.0 1020.1 0.0
06/08:00pm 8.0 3.8 1.6 64 2.6 S 13 15 7 8 1020.1 1020.2 0.0
06/07:30pm 9.2 4.6 1.6 59 3.2 S 15 17 8 9 1019.9 1020.0 0.0
06/07:00pm 10.8 6.6 1.4 52 3.9 SSW 13 19 7 10 1019.5 1019.6 0.0
06/06:30pm 11.6 7.0 1.3 49 4.4 SSW 15 19 8 10 1019.1 1019.2 0.0
06/06:00pm 11.9 7.8 2.4 52 4.1 SSW 13 17 7 9 1018.9 1019.0 0.0
06/05:30pm 13.2 9.2 2.7 49 4.7 SW 13 17 7 9 1018.5 1018.6 0.0
06/05:00pm 14.8 10.8 2.7 44 5.4 SW 13 19 7 10 1018.2 1018.3 0.0
06/04:30pm 15.8 11.4 2.9 42 5.9 W 15 22 8 12 1017.9 1018.0 0.0
06/04:00pm 16.5 12.1 2.9 40 6.2 WSW 15 20 8 11 1017.7 1017.8 0.0
06/03:30pm 16.5 11.1 2.5 39 6.4 WSW 20 30 11 16 1017.6 1017.7 0.0
06/03:00pm 16.9 12.2 2.9 39 6.4 WSW 17 22 9 12 1017.5 1017.6 0.0
06/02:30pm 16.8 12.8 3.1 40 6.3 WSW 13 20 7 11 1017.7 1017.8 0.0
06/02:00pm 17.1 13.3 3.8 41 6.2 WNW 13 22 7 12 1017.5 1017.6 0.0
06/01:30pm 16.4 12.2 3.8 43 5.9 W 15 20 8 11 1017.6 1017.7 0.0
06/01:00pm 16.2 11.5 3.3 42 5.9 WSW 17 24 9 13 1017.9 1018.0 0.0
06/12:30pm 16.2 12.5 4.6 46 5.5 W 13 19 7 10 1018.4 1018.5 0.0
06/12:00pm 15.7 12.0 4.7 48 5.2 WSW 13 20 7 11 1019.0 1019.1 0.0
06/11:30am 15.2 12.0 4.9 50 4.9 SW 11 17 6 9 1019.4 1019.5 0.0
06/11:00am 14.9 12.7 6.0 55 4.3 WSW 7 11 4 6 1019.8 1019.9 0.0
06/10:30am 14.1 12.7 5.7 57 4.0 NNE 2 7 1 4 1020.0 1020.1 0.0
06/10:00am 13.0 12.1 6.1 63 3.3 CALM 0 0 0 0 1020.3 1020.4 0.0
06/09:30am 11.7 10.5 6.4 70 2.5 ENE 2 6 1 3 1020.4 1020.5 0.0
06/09:00am 9.5 8.8 6.9 84 1.2 CALM 0 0 0 0 1020.2 1020.3 0.0
06/08:30am 6.5 4.3 5.5 93 0.4 NE 6 7 3 4 1020.1 1020.2 0.0
06/08:00am 3.3 1.7 2.7 96 0.2 CALM 0 0 0 0 1020.1 1020.2 0.0
06/07:30am 1.6 -0.2 1.2 97 0.2 CALM 0 0 0 0 1020.0 1020.1 0.0
06/07:27am 1.5 -0.3 1.1 97 0.2 CALM 0 0 0 0 1020.0 1020.1 0.0
06/07:07am 0.8 -1.2 0.2 96 0.2 CALM 0 0 0 0 1019.8 1019.9 0.0
06/07:00am 1.0 -0.9 0.4 96 0.2 CALM 0 0 0 0 1019.7 1019.8 0.0
06/06:58am 1.0 -0.9 0.4 96 0.2 CALM 0 0 0 0 1019.7 1019.8 0.0
06/06:30am 0.9 -1.0 0.3 96 0.2 CALM 0 0 0 0 1019.4 1019.5 0.0
06/06:00am 0.7 -1.3 0.0 95 0.3 CALM 0 0 0 0 1019.3 1019.4 0.0
06/05:30am 1.2 -0.7 0.5 95 0.3 CALM 0 0 0 0 1019.0 1019.1 0.0
06/05:00am 2.2 0.5 1.8 97 0.2 CALM 0 0 0 0 1018.9 1019.0 0.0
06/04:49am 2.0 0.2 1.4 96 0.2 CALM 0 0 0 0 1019.0 1019.1 0.0
06/04:30am 1.5 -0.4 0.8 95 0.3 CALM 0 0 0 0 1019.0 1019.1 0.0
06/04:29am 1.5 -0.4 0.8 95 0.3 CALM 0 0 0 0 1019.0 1019.1 0.0
06/04:00am 1.8 0.0 1.1 95 0.3 CALM 0 0 0 0 1019.1 1019.2 0.0
06/03:30am 2.0 0.2 1.3 95 0.3 CALM 0 0 0 0 1019.2 1019.3 0.0
06/03:00am 2.3 -0.6 1.4 94 0.3 SSE 6 6 3 3 1019.2 1019.3 0.0
06/02:30am 2.4 -0.5 1.5 94 0.3 SSE 6 6 3 3 1019.4 1019.5 0.0
06/02:00am 2.8 0.0 1.9 94 0.4 SSE 6 7 3 4 1019.6 1019.7 0.0
06/01:30am 3.2 0.2 2.2 93 0.4 SSE 7 7 4 4 1019.8 1019.9 0.0
06/01:00am 2.9 0.0 1.6 91 0.5 SSE 6 7 3 4 1020.1 1020.2 0.0
06/12:30am 3.7 2.1 2.4 91 0.5 CALM 0 0 0 0 1020.2 1020.3 0.0
06/12:00am 4.0 2.4 2.4 89 0.6 CALM 0 0 0 0 1020.3 1020.4 0.0
 
Date/Time
EST
Temp
°C
App
Temp
°C
Dew
Point
Rel
Hum
%
Delta-T
°C
Wind Press
QNH
hPa
Press
MSL
hPa
Rain
since 9 am
mm
Dir
 
Spd
km/h
Gust
km/h
Spd
kts
Gust
kts
05/11:30pm 4.9 3.4 3.2 89 0.7 CALM 0 0 0 0 1020.3 1020.4 0.0
05/11:00pm 5.3 3.1 3.5 88 0.8 WSW 4 7 2 4 1020.4 1020.5 0.0
05/10:30pm 5.2 2.4 3.1 86 0.9 WSW 7 9 4 5 1020.4 1020.5 0.0
05/10:00pm 6.0 3.5 3.8 86 0.9 SW 6 7 3 4 1020.5 1020.6 0.0
05/09:30pm 6.4 3.9 3.9 84 1.1 SW 6 7 3 4 1020.4 1020.5 0.0
05/09:00pm 6.8 5.6 4.6 86 1.0 CALM 0 0 0 0 1020.5 1020.6 0.0
05/08:30pm 6.8 5.5 4.1 83 1.2 CALM 0 0 0 0 1020.6 1020.7 0.0
05/08:00pm 8.0 6.8 4.6 79 1.5 CALM 0 0 0 0 1020.4 1020.5 0.0
05/07:30pm 8.6 7.4 4.4 75 1.9 CALM 0 0 0 0 1019.7 1019.8 0.0
05/07:00pm 9.7 8.6 5.3 74 2.0 CALM 0 0 0 0 1019.7 1019.8 0.0
05/06:30pm 10.8 9.7 5.3 69 2.5 CALM 0 0 0 0 1019.9 1020.0 0.0
05/06:00pm 11.4 9.0 4.4 62 3.2 S 6 6 3 3 1019.9 1020.0 0.0
05/05:30pm 14.0 11.7 4.9 54 4.3 S 6 7 3 4 1020.0 1020.1 0.0
05/05:00pm 15.9 14.7 4.6 47 5.3 CALM 0 7 0 4 1020.1 1020.2 0.0
05/04:30pm 17.0 14.5 4.7 44 5.9 WNW 7 11 4 6 1020.1 1020.2 0.0
05/04:00pm 17.3 14.8 4.9 44 5.9 WNW 7 11 4 6 1020.0 1020.1 0.0
05/03:30pm 17.4 14.8 4.4 42 6.2 WNW 7 11 4 6 1019.9 1020.0 0.0
05/03:00pm 17.1 14.0 3.8 41 6.2 NNW 9 13 5 7 1020.0 1020.1 0.0
05/02:30pm 17.3 13.6 4.3 42 6.2 N 13 17 7 9 1020.3 1020.4 0.0
05/02:00pm 17.0 13.7 4.3 43 6.0 WNW 11 17 6 9 1020.4 1020.5 0.0
05/01:30pm 17.0 13.3 4.7 44 5.9 NW 13 19 7 10 1020.7 1020.8 0.0
05/01:00pm 16.8 13.7 3.8 42 6.1 NNW 9 15 5 8 1020.9 1021.0 0.0
05/12:30pm 16.4 13.9 4.8 46 5.5 NW 7 13 4 7 1021.1 1021.2 0.0
05/12:00pm 16.2 15.0 6.6 53 4.7 ENE 2 11 1 6 1021.8 1021.9 0.0
05/11:30am 14.9 13.4 5.1 52 4.6 NW 2 9 1 5 1022.4 1022.5 0.0
05/11:00am 14.3 13.1 6.6 60 3.7 E 2 7 1 4 1022.8 1023.0 0.0
05/10:30am 12.2 10.9 5.8 65 3.0 SSW 2 7 1 4 1023.1 1023.3 0.0
05/10:00am 10.8 8.7 5.6 70 2.4 SSE 6 7 3 4 1023.3 1023.5 0.0
05/09:30am 9.5 8.0 5.1 74 2.0 S 2 7 1 4 1023.2 1023.4 0.0
05/09:00am 8.0 5.6 4.4 78 1.6 SSE 6 7 3 4 1023.1 1023.3 0.2
05/08:30am 6.1 3.4 3.8 85 1.0 S 7 7 4 4 1022.7 1022.9 0.2
05/08:00am 4.7 3.3 3.5 92 0.5 CALM 0 0 0 0 1022.5 1022.7 0.2
05/07:30am 3.0 1.3 2.0 93 0.4 CALM 0 0 0 0 1022.4 1022.5 0.2
05/07:00am 2.8 -0.1 1.6 92 0.5 S 6 7 3 4 1022.2 1022.3 0.2
05/06:30am 3.2 0.8 1.9 91 0.5 SSW 4 11 2 6 1022.1 1022.2 0.2
05/06:00am 3.7 1.0 2.4 91 0.5 NE 6 7 3 4 1021.9 1022.0 0.2
05/05:30am 4.4 2.9 2.9 90 0.6 CALM 0 0 0 0 1021.8 1021.9 0.2
05/05:00am 5.4 3.7 4.1 91 0.6 SSE 2 6 1 3 1021.8 1021.9 0.2
05/04:30am 5.4 3.7 4.2 92 0.5 SSW 2 9 1 5 1021.7 1021.8 0.2
05/04:00am 5.0 2.9 3.7 91 0.5 S 4 9 2 5 1021.7 1021.8 0.2
05/03:30am 4.6 3.2 3.3 91 0.5 CALM 0 0 0 0 1021.5 1021.6 0.2
05/03:00am 4.3 2.8 3.0 91 0.5 CALM 0 0 0 0 1021.4 1021.5 0.2
05/02:30am 4.5 2.9 2.7 88 0.7 CALM 0 0 0 0 1021.5 1021.6 0.2
05/02:00am 5.1 3.7 3.4 89 0.7 CALM 0 0 0 0 1022.1 1022.2 0.2
05/01:30am 4.8 2.0 3.1 89 0.7 E 7 9 4 5 1022.2 1022.3 0.2
05/01:00am 5.9 - 3.6 85 1.0 - - - - - 1022.7 1022.9 0.2
05/12:30am 6.6 4.2 4.1 84 1.1 S 6 6 3 3 1022.9 1023.1 0.2
05/12:00am 6.6 3.9 3.9 83 1.2 SSW 7 9 4 5 1022.8 1023.0 0.2
 
Date/Time
EST
Temp
°C
App
Temp
°C
Dew
Point
Rel
Hum
%
Delta-T
°C
Wind Press
QNH
hPa
Press
MSL
hPa
Rain
since 9 am
mm
Dir
 
Spd
km/h
Gust
km/h
Spd
kts
Gust
kts
04/11:30pm 7.1 4.7 4.4 83 1.2 SSW 6 6 3 3 1022.8 1023.0 0.2
04/11:00pm 7.3 4.3 4.3 81 1.3 S 9 11 5 6 1023.1 1023.3 0.2
04/10:30pm 8.5 5.6 4.5 76 1.8 SSW 9 9 5 5 1023.1 1023.3 0.2
04/10:00pm 8.4 5.5 4.8 78 1.6 S 9 11 5 6 1022.9 1023.1 0.2
04/09:30pm 9.0 6.2 5.2 77 1.7 S 9 9 5 5 1022.8 1023.0 0.2
04/09:00pm 9.5 6.7 5.3 75 1.9 SSE 9 13 5 7 1022.8 1023.0 0.2
04/08:30pm 9.9 6.8 5.5 74 2.0 SSE 11 13 6 7 1022.7 1022.9 0.2
04/08:00pm 10.2 7.1 5.4 72 2.2 SSE 11 11 6 6 1022.8 1023.0 0.2
04/07:30pm 10.7 7.6 5.5 70 2.4 S 11 13 6 7 1022.8 1023.0 0.2
04/07:00pm 11.4 8.5 4.8 64 3.0 SSW 9 13 5 7 1022.7 1022.9 0.2
04/06:30pm 11.5 9.0 4.7 63 3.1 SW 7 9 4 5 1022.4 1022.5 0.2
04/06:00pm 12.5 9.6 4.7 59 3.6 SSW 9 13 5 7 1022.1 1022.2 0.2
04/05:30pm 13.2 9.9 4.6 56 4.0 SW 11 13 6 7 1021.9 1022.0 0.2
04/05:00pm 14.2 10.8 4.2 51 4.6 SSW 11 15 6 8 1021.9 1022.0 0.2
04/04:30pm 15.0 11.3 4.4 49 5.0 SSW 13 17 7 9 1021.8 1021.9 0.2
04/04:00pm 16.2 13.2 3.9 44 5.7 SSW 9 13 5 7 1021.8 1021.9 0.2
04/03:30pm 16.0 12.9 3.4 43 5.8 N 9 13 5 7 1021.9 1022.0 0.2
04/03:00pm 16.3 13.2 3.4 42 5.9 WNW 9 15 5 8 1022.1 1022.2 0.2
04/02:30pm 16.1 12.7 3.9 44 5.7 NW 11 13 6 7 1022.1 1022.2 0.2
04/02:00pm 16.0 12.9 3.4 43 5.8 NW 9 13 5 7 1022.2 1022.3 0.2
04/01:30pm 15.4 13.1 4.8 49 5.0 WNW 6 13 3 7 1022.5 1022.7 0.2
04/01:00pm 15.1 12.3 5.3 52 4.6 W 9 13 5 7 1022.9 1023.1 0.2
04/12:30pm 14.6 11.9 5.4 54 4.4 WSW 9 13 5 7 1023.5 1023.7 0.2
04/12:00pm 13.9 11.7 5.3 56 4.0 SSW 6 11 3 6 1024.1 1024.3 0.0
04/11:30am 13.8 12.1 5.7 58 3.9 ENE 4 7 2 4 1024.6 1024.8 0.0
04/11:00am 13.0 11.6 5.7 61 3.4 NNE 2 7 1 4 1025.1 1025.2 0.0
04/10:30am 11.1 9.6 5.0 66 2.8 ENE 2 9 1 5 1025.4 1025.5 0.0
04/10:00am 9.8 7.5 4.8 71 2.2 NE 6 7 3 4 1025.6 1025.7 0.0
04/09:30am 7.8 6.0 3.3 73 1.9 ENE 2 7 1 4 1025.6 1025.7 0.0
04/09:00am 6.3 4.8 3.1 80 1.3 CALM 0 0 0 0 1025.3 1025.4 0.0
04/08:30am 3.6 1.9 1.8 88 0.7 CALM 0 0 0 0 1025.1 1025.2 0.0
04/08:00am 2.1 0.3 1.1 93 0.4 CALM 0 0 0 0 1024.9 1025.1 0.0
04/07:30am 0.3 -1.8 -0.7 93 0.4 CALM 0 0 0 0 1024.7 1024.9 0.0
04/07:00am 0.4 -1.6 -0.3 95 0.3 CALM 0 0 0 0 1024.4 1024.6 0.0
04/06:30am 0.1 -2.7 -0.7 94 0.3 S 4 6 2 3 1024.2 1024.4 0.0
04/06:00am 0.0 -3.2 -0.8 94 0.3 SSW 6 7 3 4 1024.2 1024.4 0.0
04/05:30am -0.1 -3.9 -0.9 94 0.3 SSW 9 11 5 6 1024.1 1024.3 0.0
04/05:00am 0.3 -1.7 -0.4 95 0.2 CALM 0 2 0 1 1023.8 1024.0 0.0
04/04:30am -0.3 -3.6 -1.3 93 0.3 SSW 6 9 3 5 1023.7 1023.9 0.0
04/04:00am 1.0 -1.7 0.1 94 0.3 SW 4 6 2 3 1023.9 1024.1 0.0
04/03:30am 1.1 -2.0 0.1 93 0.4 SW 6 7 3 4 1024.1 1024.3 0.0
04/03:00am 1.7 -1.3 0.7 93 0.4 SW 6 7 3 4 1024.2 1024.4 0.0
04/02:30am 1.3 -2.0 0.0 91 0.5 SW 7 9 4 5 1024.3 1024.5 0.0
04/02:00am 2.0 -1.5 1.0 93 0.4 SW 9 9 5 5 1024.2 1024.4 0.0
04/01:30am 1.5 -2.2 0.2 91 0.5 SSW 9 9 5 5 1024.5 1024.7 0.0
04/01:00am 2.1 -0.9 0.5 89 0.6 S 6 7 3 4 1024.5 1024.7 0.0
04/12:30am 2.9 -0.1 1.1 88 0.7 SSE 6 6 3 3 1024.7 1024.9 0.0
04/12:00am 3.3 0.2 1.2 86 0.8 SSE 7 7 4 4 1025.1 1025.2 0.0

Other Formats:

Comma delimited format used in spreadsheet applications
http://www.bom.gov.au/fwo/IDN60801/IDN60801.95715.axf

JavaScript Object Notation format (JSON) in row-major order
http://www.bom.gov.au/fwo/IDN60801/IDN60801.95715.json